createdAt,value
2022-09-07T00:00:14.340Z,996.53
2022-09-07T00:01:16.631Z,996.36
2022-09-07T00:02:15.236Z,996.64
2022-09-07T00:03:14.787Z,996.74
2022-09-07T00:04:12.802Z,996.88
2022-09-07T00:05:14.966Z,996.85
2022-09-07T00:06:15.722Z,996.85
2022-09-07T00:07:15.357Z,996.97
2022-09-07T00:08:14.846Z,996.98
2022-09-07T00:09:15.414Z,997.01
2022-09-07T00:10:13.318Z,997.01
2022-09-07T00:11:13.337Z,997.01
2022-09-07T00:12:13.209Z,997.04
2022-09-07T00:13:15.504Z,997.06
2022-09-07T00:14:13.448Z,997.12
2022-09-07T00:15:13.221Z,997.10
2022-09-07T00:16:13.373Z,997.07
2022-09-07T00:17:13.713Z,996.98
2022-09-07T00:18:13.936Z,997.01
2022-09-07T00:19:12.787Z,997.11
2022-09-07T00:20:14.186Z,997.10
2022-09-07T00:21:13.265Z,997.08
2022-09-07T00:22:13.483Z,997.12
2022-09-07T00:23:16.364Z,997.16
2022-09-07T00:24:15.443Z,997.04
2022-09-07T00:25:13.572Z,997.08
2022-09-07T00:26:13.391Z,997.03
2022-09-07T00:27:15.424Z,997.02
2022-09-07T00:28:13.421Z,997.03
2022-09-07T00:29:13.447Z,997.10
2022-09-07T00:30:14.499Z,997.21
2022-09-07T00:31:13.508Z,997.21
2022-09-07T00:32:13.380Z,997.20
2022-09-07T00:33:14.867Z,997.32
2022-09-07T00:34:14.230Z,997.32
2022-09-07T00:35:13.443Z,997.34
2022-09-07T00:36:13.766Z,997.38
2022-09-07T00:37:14.221Z,997.33
2022-09-07T00:38:14.237Z,997.35
2022-09-07T00:39:13.393Z,997.29
2022-09-07T00:40:13.423Z,997.25
2022-09-07T00:41:13.369Z,997.29
2022-09-07T00:42:13.413Z,997.31
2022-09-07T00:43:13.442Z,997.34
2022-09-07T00:44:14.933Z,997.35
2022-09-07T00:45:12.827Z,997.33
2022-09-07T00:46:13.824Z,997.35
2022-09-07T00:47:13.822Z,997.29
2022-09-07T00:48:14.048Z,997.34
2022-09-07T00:49:12.922Z,997.40
2022-09-07T00:50:14.463Z,997.40
2022-09-07T00:51:13.396Z,997.39
2022-09-07T00:52:13.199Z,997.45
2022-09-07T00:53:14.110Z,997.53
2022-09-07T00:54:15.675Z,997.58
2022-09-07T00:55:13.900Z,997.64
2022-09-07T00:56:12.802Z,997.65
2022-09-07T00:57:19.050Z,997.66
2022-09-07T00:58:12.963Z,997.64
2022-09-07T00:59:13.238Z,997.67
2022-09-07T01:00:13.280Z,997.68
2022-09-07T01:01:13.179Z,997.65
2022-09-07T01:02:13.203Z,997.68
2022-09-07T01:03:13.530Z,997.69
2022-09-07T01:04:13.551Z,997.65
2022-09-07T01:05:14.811Z,997.61
2022-09-07T01:06:15.163Z,997.57
2022-09-07T01:07:13.352Z,997.50
2022-09-07T01:08:13.540Z,997.41
2022-09-07T01:09:13.434Z,997.38
2022-09-07T01:10:13.444Z,997.37
2022-09-07T01:11:14.546Z,997.33
2022-09-07T01:12:13.942Z,997.33
2022-09-07T01:13:12.800Z,997.38
2022-09-07T01:14:13.725Z,997.41
2022-09-07T01:15:15.285Z,997.46
2022-09-07T01:16:13.562Z,997.52
2022-09-07T01:17:13.444Z,997.55
2022-09-07T01:18:13.348Z,997.50
2022-09-07T01:19:13.644Z,997.45
2022-09-07T01:20:13.672Z,997.46
2022-09-07T01:21:13.714Z,997.41
2022-09-07T01:22:13.652Z,997.41
2022-09-07T01:23:13.470Z,997.39
2022-09-07T01:24:13.329Z,997.38
2022-09-07T01:25:13.172Z,997.36
2022-09-07T01:26:13.089Z,997.35
2022-09-07T01:27:13.040Z,997.28
2022-09-07T01:28:12.984Z,997.27
2022-09-07T01:29:13.100Z,997.24
2022-09-07T01:30:13.140Z,997.29
2022-09-07T01:31:13.320Z,997.28
2022-09-07T01:32:13.523Z,997.31
2022-09-07T01:33:13.387Z,997.30
2022-09-07T01:34:13.844Z,997.28
2022-09-07T01:35:13.764Z,997.34
2022-09-07T01:36:13.646Z,997.33
2022-09-07T01:37:13.426Z,997.38
2022-09-07T01:38:13.457Z,997.33
2022-09-07T01:39:13.336Z,997.35
2022-09-07T01:40:13.666Z,997.29
2022-09-07T01:41:13.502Z,997.30
2022-09-07T01:42:13.337Z,997.24
2022-09-07T01:43:13.317Z,997.25
2022-09-07T01:44:13.237Z,997.22
2022-09-07T01:45:13.109Z,997.25
2022-09-07T01:46:13.371Z,997.22
2022-09-07T01:47:13.655Z,997.22
2022-09-07T01:48:13.743Z,997.14
2022-09-07T01:49:13.984Z,997.08
2022-09-07T01:50:12.907Z,997.04
2022-09-07T01:51:12.781Z,997.00
2022-09-07T01:52:13.678Z,996.96
2022-09-07T01:53:13.545Z,996.92
2022-09-07T01:54:13.386Z,996.91
2022-09-07T01:55:13.406Z,996.92
2022-09-07T01:56:13.320Z,996.92
2022-09-07T01:57:13.355Z,996.87
2022-09-07T01:58:13.379Z,996.82
2022-09-07T01:59:13.280Z,996.83
2022-09-07T02:00:13.176Z,996.77
2022-09-07T02:01:13.401Z,996.69
2022-09-07T02:02:13.706Z,996.61
2022-09-07T02:03:14.189Z,996.49
2022-09-07T02:04:13.398Z,996.48
2022-09-07T02:05:13.299Z,996.47
2022-09-07T02:06:13.197Z,996.43
2022-09-07T02:07:13.108Z,996.39
2022-09-07T02:08:13.027Z,996.40
2022-09-07T02:09:12.877Z,996.48
2022-09-07T02:10:13.726Z,996.52
2022-09-07T02:11:13.606Z,996.44
2022-09-07T02:12:13.492Z,996.36
2022-09-07T02:13:13.316Z,996.34
2022-09-07T02:14:13.148Z,996.32
2022-09-07T02:15:13.390Z,996.33
2022-09-07T02:16:13.742Z,996.29
2022-09-07T02:17:13.637Z,996.22
2022-09-07T02:18:13.990Z,996.15
2022-09-07T02:19:12.978Z,996.09
2022-09-07T02:20:13.162Z,996.03
2022-09-07T02:21:13.062Z,995.93
2022-09-07T02:22:13.502Z,995.91
2022-09-07T02:23:13.614Z,995.83
2022-09-07T02:24:14.190Z,995.81
2022-09-07T02:25:13.153Z,995.75
2022-09-07T02:26:13.047Z,995.73
2022-09-07T02:27:14.703Z,995.71
2022-09-07T02:28:13.794Z,995.70
2022-09-07T02:29:14.135Z,995.58
2022-09-07T02:30:13.078Z,995.54
2022-09-07T02:31:13.046Z,995.48
2022-09-07T02:32:13.176Z,995.47
2022-09-07T02:33:13.091Z,995.47
2022-09-07T02:34:13.046Z,995.48
2022-09-07T02:35:13.155Z,995.46
2022-09-07T02:36:13.025Z,995.46
2022-09-07T02:37:13.233Z,995.42
2022-09-07T02:38:13.505Z,995.42
2022-09-07T02:39:13.810Z,995.39
2022-09-07T02:40:13.832Z,995.41
2022-09-07T02:41:13.986Z,995.37
2022-09-07T02:42:13.061Z,995.33
2022-09-07T02:43:13.100Z,995.32
2022-09-07T02:44:13.417Z,995.34
2022-09-07T02:45:13.666Z,995.29
2022-09-07T02:46:14.117Z,995.29
2022-09-07T02:47:13.342Z,995.27
2022-09-07T02:48:13.528Z,995.25
2022-09-07T02:49:13.834Z,995.25
2022-09-07T02:50:13.692Z,995.24
2022-09-07T02:51:13.629Z,995.25
2022-09-07T02:52:13.472Z,995.25
2022-09-07T02:53:13.290Z,995.26
2022-09-07T02:54:13.561Z,995.26
2022-09-07T02:55:15.068Z,995.27
2022-09-07T02:56:13.119Z,995.29
2022-09-07T02:57:13.410Z,995.31
2022-09-07T02:58:13.487Z,995.33
2022-09-07T02:59:13.550Z,995.29
2022-09-07T03:00:13.675Z,995.29
2022-09-07T03:01:13.563Z,995.31
2022-09-07T03:02:13.670Z,995.31
2022-09-07T03:03:13.621Z,995.30
2022-09-07T03:04:13.441Z,995.28
2022-09-07T03:05:13.270Z,995.34
2022-09-07T03:06:13.234Z,995.29
2022-09-07T03:07:13.637Z,995.31
2022-09-07T03:08:13.727Z,995.23
2022-09-07T03:09:13.652Z,995.27
2022-09-07T03:10:13.484Z,995.28
2022-09-07T03:11:13.374Z,995.25
2022-09-07T03:12:13.448Z,995.23
2022-09-07T03:13:13.481Z,995.25
2022-09-07T03:14:13.757Z,995.25
2022-09-07T03:15:14.479Z,995.25
2022-09-07T03:16:13.499Z,995.26
2022-09-07T03:17:13.423Z,995.24
2022-09-07T03:18:13.327Z,995.23
2022-09-07T03:19:14.823Z,995.20
2022-09-07T03:20:13.674Z,995.24
2022-09-07T03:21:13.537Z,995.23
2022-09-07T03:22:13.414Z,995.21
2022-09-07T03:23:13.575Z,995.25
2022-09-07T03:24:13.418Z,995.22
2022-09-07T03:25:13.324Z,995.22
2022-09-07T03:26:13.394Z,995.21
2022-09-07T03:27:13.423Z,995.20
2022-09-07T03:28:15.271Z,995.17
2022-09-07T03:29:13.298Z,995.15
2022-09-07T03:30:13.364Z,995.17
2022-09-07T03:31:13.359Z,995.17
2022-09-07T03:32:13.323Z,995.19
2022-09-07T03:33:13.245Z,995.21
2022-09-07T03:34:13.061Z,995.24
2022-09-07T03:35:14.309Z,995.26
2022-09-07T03:36:13.406Z,995.28
2022-09-07T03:37:13.356Z,995.26
2022-09-07T03:38:13.277Z,995.32
2022-09-07T03:39:14.421Z,995.32
2022-09-07T03:40:13.394Z,995.38
2022-09-07T03:41:13.368Z,995.39
2022-09-07T03:42:13.497Z,995.38
2022-09-07T03:43:13.422Z,995.38
2022-09-07T03:44:13.424Z,995.35
2022-09-07T03:45:13.361Z,995.35
2022-09-07T03:46:13.628Z,995.38
2022-09-07T03:47:13.591Z,995.36
2022-09-07T03:48:13.523Z,995.35
2022-09-07T03:49:13.566Z,995.34
2022-09-07T03:50:13.661Z,995.30
2022-09-07T03:51:15.262Z,995.29
2022-09-07T03:52:13.112Z,995.35
2022-09-07T03:53:13.133Z,995.33
2022-09-07T03:54:14.000Z,995.35
2022-09-07T03:55:13.047Z,995.37
2022-09-07T03:56:13.274Z,995.34
2022-09-07T03:57:13.471Z,995.33
2022-09-07T03:58:13.586Z,995.34
2022-09-07T03:59:13.450Z,995.34
2022-09-07T04:00:13.508Z,995.34
2022-09-07T04:01:13.797Z,995.34
2022-09-07T04:02:13.656Z,995.34
2022-09-07T04:03:13.941Z,995.36
2022-09-07T04:04:12.778Z,995.33
2022-09-07T04:05:13.591Z,995.33
2022-09-07T04:06:13.383Z,995.31
2022-09-07T04:07:13.308Z,995.37
2022-09-07T04:08:13.256Z,995.35
2022-09-07T04:09:13.407Z,995.41
2022-09-07T04:10:13.470Z,995.46
2022-09-07T04:11:13.499Z,995.49
2022-09-07T04:12:13.882Z,995.45
2022-09-07T04:13:13.802Z,995.41
2022-09-07T04:14:13.945Z,995.40
2022-09-07T04:15:14.010Z,995.37
2022-09-07T04:16:12.863Z,995.34
2022-09-07T04:17:13.760Z,995.35
2022-09-07T04:18:18.709Z,995.34
2022-09-07T04:19:13.808Z,995.37
2022-09-07T04:20:14.326Z,995.37
2022-09-07T04:21:13.305Z,995.35
2022-09-07T04:22:13.217Z,995.34
2022-09-07T04:23:18.177Z,995.33
2022-09-07T04:24:13.170Z,995.32
2022-09-07T04:25:13.323Z,995.38
2022-09-07T04:26:13.207Z,995.38
2022-09-07T04:27:13.094Z,995.39
2022-09-07T04:28:12.841Z,995.41
2022-09-07T04:29:13.781Z,995.43
2022-09-07T04:30:13.926Z,995.42
2022-09-07T04:31:13.269Z,995.46
2022-09-07T04:32:15.844Z,995.43
2022-09-07T04:33:13.218Z,995.47
2022-09-07T04:34:13.378Z,995.52
2022-09-07T04:35:13.333Z,995.51
2022-09-07T04:36:13.282Z,995.49
2022-09-07T04:37:13.146Z,995.47
2022-09-07T04:38:12.986Z,995.45
2022-09-07T04:39:12.864Z,995.43
2022-09-07T04:40:14.077Z,995.41
2022-09-07T04:41:12.970Z,995.41
2022-09-07T04:42:12.958Z,995.40
2022-09-07T04:43:14.047Z,995.41
2022-09-07T04:44:16.612Z,995.41
2022-09-07T04:45:12.872Z,995.38
2022-09-07T04:46:14.148Z,995.41
2022-09-07T04:47:15.021Z,995.41
2022-09-07T04:48:12.844Z,995.38
2022-09-07T04:49:14.077Z,995.41
2022-09-07T04:50:12.951Z,995.40
2022-09-07T04:51:12.767Z,995.38
2022-09-07T04:52:13.817Z,995.37
2022-09-07T04:53:13.673Z,995.33
2022-09-07T04:54:13.882Z,995.36
2022-09-07T04:55:14.064Z,995.36
2022-09-07T04:56:16.797Z,995.34
2022-09-07T04:57:13.015Z,995.37
2022-09-07T04:58:12.871Z,995.36
2022-09-07T04:59:13.885Z,995.37
2022-09-07T05:00:12.661Z,995.34
2022-09-07T05:01:13.617Z,995.29
2022-09-07T05:02:13.924Z,995.26
2022-09-07T05:03:13.232Z,995.24
2022-09-07T05:04:13.092Z,995.25
2022-09-07T05:05:12.972Z,995.25
2022-09-07T05:06:12.928Z,995.25
2022-09-07T05:07:12.877Z,995.22
2022-09-07T05:08:13.776Z,995.26
2022-09-07T05:09:13.693Z,995.23
2022-09-07T05:10:13.672Z,995.24
2022-09-07T05:11:13.571Z,995.24
2022-09-07T05:12:13.607Z,995.22
2022-09-07T05:13:13.797Z,995.25
2022-09-07T05:14:13.815Z,995.26
2022-09-07T05:15:15.705Z,995.29
2022-09-07T05:16:13.741Z,995.27
2022-09-07T05:17:13.656Z,995.27
2022-09-07T05:18:13.853Z,995.28
2022-09-07T05:19:13.812Z,995.28
2022-09-07T05:20:20.076Z,995.32
2022-09-07T05:21:13.391Z,995.32
2022-09-07T05:22:13.384Z,995.36
2022-09-07T05:23:13.286Z,995.36
2022-09-07T05:24:13.396Z,995.41
2022-09-07T05:25:13.571Z,995.42
2022-09-07T05:26:13.740Z,995.44
2022-09-07T05:27:13.578Z,995.47
2022-09-07T05:28:18.579Z,995.43
2022-09-07T05:32:18.494Z,995.54
2022-09-07T05:33:13.393Z,995.52
2022-09-07T05:35:13.948Z,995.51
2022-09-07T05:36:13.278Z,995.47
2022-09-07T05:37:13.107Z,995.51
2022-09-07T05:38:13.057Z,995.53
2022-09-07T05:39:13.345Z,995.55
2022-09-07T05:40:14.083Z,995.54
2022-09-07T05:41:13.005Z,995.59
2022-09-07T05:42:12.981Z,995.59
2022-09-07T05:43:13.375Z,995.58
2022-09-07T05:45:13.426Z,995.60
2022-09-07T05:46:13.592Z,995.61
2022-09-07T05:47:13.631Z,995.64
2022-09-07T05:48:13.539Z,995.67
2022-09-07T05:49:13.534Z,995.69
2022-09-07T05:50:13.698Z,995.70
2022-09-07T05:51:13.576Z,995.70
2022-09-07T05:52:13.759Z,995.69
2022-09-07T05:53:13.877Z,995.71
2022-09-07T05:54:14.045Z,995.70
2022-09-07T05:55:28.816Z,995.73
2022-09-07T05:56:13.590Z,995.74
2022-09-07T05:57:13.481Z,995.78
2022-09-07T05:58:13.386Z,995.77
2022-09-07T05:59:13.150Z,995.75
2022-09-07T06:00:13.139Z,995.73
2022-09-07T06:01:13.126Z,995.76
2022-09-07T06:02:13.294Z,995.74
2022-09-07T06:03:13.870Z,995.74
2022-09-07T06:04:13.240Z,995.77
2022-09-07T06:05:13.232Z,995.75
2022-09-07T06:06:13.043Z,995.77
2022-09-07T06:07:22.984Z,995.80
2022-09-07T06:08:13.347Z,995.79
2022-09-07T06:09:13.202Z,995.81
2022-09-07T06:10:44.256Z,995.81
2022-09-07T06:11:13.605Z,995.79
2022-09-07T06:12:13.560Z,995.81
2022-09-07T06:13:13.716Z,995.80
2022-09-07T06:14:13.576Z,995.77
2022-09-07T06:15:13.432Z,995.78
2022-09-07T06:16:13.411Z,995.79
2022-09-07T06:17:15.278Z,995.77
2022-09-07T06:18:13.122Z,995.75
2022-09-07T06:19:14.835Z,995.78
2022-09-07T06:20:13.853Z,995.76
2022-09-07T06:21:14.001Z,995.70
2022-09-07T06:22:13.092Z,995.66
2022-09-07T06:23:13.343Z,995.68
2022-09-07T06:24:14.471Z,995.67
2022-09-07T06:25:14.911Z,995.67
2022-09-07T06:26:13.032Z,995.69
2022-09-07T06:27:12.952Z,995.68
2022-09-07T06:28:12.785Z,995.68
2022-09-07T06:29:13.636Z,995.71
2022-09-07T06:30:13.423Z,995.77
2022-09-07T06:31:13.263Z,995.77
2022-09-07T06:32:43.038Z,995.79
2022-09-07T06:33:14.328Z,995.78
2022-09-07T06:34:13.239Z,995.73
2022-09-07T06:35:13.153Z,995.76
2022-09-07T06:36:12.999Z,995.75
2022-09-07T06:37:12.875Z,995.73
2022-09-07T06:38:13.801Z,995.77
2022-09-07T06:39:13.942Z,995.76
2022-09-07T06:40:13.195Z,995.73
2022-09-07T06:42:13.229Z,995.78
2022-09-07T06:43:13.055Z,995.78
2022-09-07T06:44:13.114Z,995.78
2022-09-07T06:45:12.946Z,995.76
2022-09-07T06:47:13.059Z,995.83
2022-09-07T06:48:13.188Z,995.85
2022-09-07T06:49:13.074Z,995.85
2022-09-07T06:50:12.997Z,995.91
2022-09-07T06:51:13.994Z,995.90
2022-09-07T06:52:13.035Z,995.94
2022-09-07T06:53:35.234Z,995.96
2022-09-07T06:55:15.705Z,996.03
2022-09-07T06:56:14.064Z,996.05
2022-09-07T06:57:13.309Z,996.08
2022-09-07T06:58:13.493Z,996.07
2022-09-07T06:59:13.337Z,996.10
2022-09-07T07:00:14.699Z,996.15
2022-09-07T07:01:15.417Z,996.11
2022-09-07T07:02:13.753Z,996.14
2022-09-07T07:03:13.824Z,996.12
2022-09-07T07:04:13.710Z,996.14
2022-09-07T07:05:13.937Z,996.14
2022-09-07T07:06:13.997Z,996.11
2022-09-07T07:07:13.019Z,996.16
2022-09-07T07:08:14.717Z,996.16
2022-09-07T07:09:13.594Z,996.20
2022-09-07T07:10:13.509Z,996.23
2022-09-07T07:11:13.394Z,996.22
2022-09-07T07:12:13.618Z,996.27
2022-09-07T07:14:13.372Z,996.32
2022-09-07T07:15:13.733Z,996.33
2022-09-07T07:16:13.675Z,996.33
2022-09-07T07:17:13.744Z,996.35
2022-09-07T07:18:21.274Z,996.32
2022-09-07T07:19:13.788Z,996.33
2022-09-07T07:20:13.621Z,996.29
2022-09-07T07:21:13.697Z,996.32
2022-09-07T07:22:36.036Z,996.30
2022-09-07T07:23:13.254Z,996.28
2022-09-07T07:24:13.309Z,996.26
2022-09-07T07:25:13.191Z,996.25
2022-09-07T07:26:13.283Z,996.27
2022-09-07T07:27:13.198Z,996.22
2022-09-07T07:29:15.837Z,996.23
2022-09-07T07:30:13.063Z,996.27
2022-09-07T07:31:13.286Z,996.25
2022-09-07T07:32:13.572Z,996.26
2022-09-07T07:33:13.927Z,996.32
2022-09-07T07:34:12.957Z,996.29
2022-09-07T07:35:14.106Z,996.28
2022-09-07T07:36:14.924Z,996.29
2022-09-07T07:37:13.124Z,996.30
2022-09-07T07:42:13.830Z,996.39
2022-09-07T07:43:14.119Z,996.36
2022-09-07T07:44:14.850Z,996.36
2022-09-07T07:46:13.942Z,996.38
2022-09-07T07:47:12.805Z,996.36
2022-09-07T07:48:14.073Z,996.38
2022-09-07T07:49:12.979Z,996.35
2022-09-07T07:50:33.969Z,996.37
2022-09-07T07:51:14.740Z,996.33
2022-09-07T07:53:42.459Z,996.39
2022-09-07T07:54:15.654Z,996.43
2022-09-07T07:55:43.410Z,996.42
2022-09-07T07:56:16.526Z,996.45
2022-09-07T07:57:13.697Z,996.44
2022-09-07T07:58:13.786Z,996.43
2022-09-07T07:59:15.867Z,996.45
2022-09-07T08:00:14.429Z,996.51
2022-09-07T08:01:14.096Z,996.48
2022-09-07T08:02:14.952Z,996.47
2022-09-07T08:03:13.238Z,996.48
2022-09-07T08:04:13.429Z,996.49
2022-09-07T08:05:13.392Z,996.52
2022-09-07T08:06:15.114Z,996.54
2022-09-07T08:07:13.185Z,996.52
2022-09-07T08:08:15.967Z,996.54
2022-09-07T08:09:14.030Z,996.55
2022-09-07T08:10:15.062Z,996.56
2022-09-07T08:11:13.431Z,996.57
2022-09-07T08:12:13.231Z,996.60
2022-09-07T08:13:13.130Z,996.63
2022-09-07T08:14:14.646Z,996.65
2022-09-07T08:15:13.583Z,996.67
2022-09-07T08:16:13.720Z,996.68
2022-09-07T08:17:13.623Z,996.69
2022-09-07T08:18:13.533Z,996.68
2022-09-07T08:19:13.872Z,996.73
2022-09-07T08:20:14.421Z,996.73
2022-09-07T08:21:13.759Z,996.73
2022-09-07T08:22:13.996Z,996.73
2022-09-07T08:23:12.977Z,996.73
2022-09-07T08:24:16.052Z,996.75
2022-09-07T08:25:13.191Z,996.80
2022-09-07T08:26:13.114Z,996.76
2022-09-07T08:27:13.485Z,996.76
2022-09-07T08:28:13.387Z,996.75
2022-09-07T08:29:14.943Z,996.75
2022-09-07T08:30:15.500Z,996.80
2022-09-07T08:31:13.439Z,996.82
2022-09-07T08:32:13.424Z,996.86
2022-09-07T08:33:13.471Z,996.84
2022-09-07T08:34:13.692Z,996.86
2022-09-07T08:35:14.069Z,996.84
2022-09-07T08:36:13.054Z,996.89
2022-09-07T08:37:13.376Z,996.93
2022-09-07T08:38:19.147Z,996.92
2022-09-07T08:39:13.818Z,996.91
2022-09-07T08:40:15.704Z,996.89
2022-09-07T08:41:15.220Z,996.95
2022-09-07T08:42:13.299Z,996.97
2022-09-07T08:43:14.595Z,996.92
2022-09-07T08:44:15.495Z,996.85
2022-09-07T08:45:15.207Z,996.96
2022-09-07T08:46:17.338Z,996.92
2022-09-07T08:47:15.284Z,996.89
2022-09-07T08:48:13.513Z,996.92
2022-09-07T08:49:15.101Z,996.91
2022-09-07T08:50:13.227Z,996.89
2022-09-07T08:51:19.060Z,996.89
2022-09-07T08:52:13.379Z,996.90
2022-09-07T08:53:16.806Z,996.83
2022-09-07T08:54:13.683Z,996.83
2022-09-07T08:55:17.763Z,996.89
2022-09-07T08:56:17.799Z,996.87
2022-09-07T08:57:22.651Z,996.92
2022-09-07T08:58:27.034Z,996.88
2022-09-07T08:59:13.079Z,996.91
2022-09-07T09:00:16.987Z,996.93
2022-09-07T09:01:32.460Z,996.87
2022-09-07T09:02:35.068Z,996.89
2022-09-07T09:03:32.024Z,996.92
2022-09-07T09:04:17.678Z,996.87
2022-09-07T09:05:19.520Z,996.86
2022-09-07T09:06:18.029Z,996.88
2022-09-07T09:07:17.826Z,996.91
2022-09-07T09:08:13.889Z,996.90
2022-09-07T09:09:13.985Z,996.92
2022-09-07T09:10:18.118Z,996.93
2022-09-07T09:11:16.554Z,996.86
2022-09-07T09:12:15.389Z,996.90
2022-09-07T09:13:15.160Z,996.87
2022-09-07T09:14:13.126Z,996.87
2022-09-07T09:15:13.175Z,996.86
2022-09-07T09:16:13.114Z,996.84
2022-09-07T09:17:16.737Z,996.83
2022-09-07T09:18:14.546Z,996.78
2022-09-07T09:19:17.199Z,996.76
2022-09-07T09:20:17.703Z,996.81
2022-09-07T09:21:18.048Z,996.75
2022-09-07T09:22:17.417Z,996.71
2022-09-07T09:23:18.403Z,996.78
2022-09-07T09:24:18.305Z,996.73
2022-09-07T09:25:16.580Z,996.82
2022-09-07T09:26:13.542Z,996.81
2022-09-07T09:27:18.019Z,996.77
2022-09-07T09:28:14.106Z,996.80
2022-09-07T09:29:12.946Z,996.82
2022-09-07T09:30:12.839Z,996.76
2022-09-07T09:31:13.913Z,996.75
2022-09-07T09:32:12.864Z,996.75
2022-09-07T09:33:14.624Z,996.76
2022-09-07T09:34:13.582Z,996.77
2022-09-07T09:35:13.387Z,996.80
2022-09-07T09:36:14.656Z,996.75
2022-09-07T09:37:13.584Z,996.77
2022-09-07T09:38:16.538Z,996.78
2022-09-07T09:39:18.438Z,996.79
2022-09-07T09:40:16.870Z,996.77
2022-09-07T09:41:12.815Z,996.84
2022-09-07T09:42:15.679Z,996.77
2022-09-07T09:43:18.270Z,996.83
2022-09-07T09:44:13.278Z,996.86
2022-09-07T09:45:15.008Z,996.87
2022-09-07T09:46:16.237Z,996.89
2022-09-07T09:47:31.286Z,996.92
2022-09-07T09:48:17.328Z,996.96
2022-09-07T09:49:15.416Z,996.93
2022-09-07T09:52:28.907Z,996.89
2022-09-07T09:52:43.531Z,996.88
2022-09-07T09:53:15.324Z,996.97
2022-09-07T09:54:18.738Z,996.99
2022-09-07T09:55:33.832Z,996.94
2022-09-07T09:56:16.226Z,996.91
2022-09-07T09:57:16.655Z,996.89
2022-09-07T10:00:27.959Z,996.97
2022-09-07T10:01:22.701Z,996.88
2022-09-07T10:04:17.538Z,996.90
2022-09-07T10:05:16.866Z,996.87
2022-09-07T10:06:17.263Z,996.86
2022-09-07T10:07:18.965Z,996.87
2022-09-07T10:08:16.464Z,996.89
2022-09-07T10:09:18.878Z,996.86
2022-09-07T10:10:19.589Z,996.86
2022-09-07T10:11:13.461Z,996.81
2022-09-07T10:12:15.889Z,996.83
2022-09-07T10:13:15.321Z,996.81
2022-09-07T10:14:14.142Z,996.82
2022-09-07T10:15:17.087Z,996.84
2022-09-07T10:16:13.053Z,996.82
2022-09-07T10:17:13.007Z,996.77
2022-09-07T10:18:15.348Z,996.79
2022-09-07T10:19:18.839Z,996.78
2022-09-07T10:20:12.937Z,996.78
2022-09-07T10:21:14.283Z,996.80
2022-09-07T10:22:16.265Z,996.90
2022-09-07T10:23:15.717Z,996.89
2022-09-07T10:24:18.188Z,996.93
2022-09-07T10:25:17.093Z,996.91
2022-09-07T10:26:16.829Z,996.90
2022-09-07T10:27:16.375Z,996.88
2022-09-07T10:28:15.092Z,996.91
2022-09-07T10:29:13.381Z,996.88
2022-09-07T10:30:14.078Z,996.83
2022-09-07T10:31:15.528Z,996.81
2022-09-07T10:32:14.039Z,996.86
2022-09-07T10:33:15.972Z,996.91
2022-09-07T10:34:27.621Z,996.89
2022-09-07T10:35:16.701Z,996.86
2022-09-07T10:36:16.998Z,996.83
2022-09-07T10:37:12.859Z,996.83
2022-09-07T10:38:18.573Z,996.84
2022-09-07T10:39:17.819Z,996.89
2022-09-07T10:40:13.883Z,996.92
2022-09-07T10:41:15.964Z,996.89
2022-09-07T10:42:16.196Z,996.90
2022-09-07T10:43:21.456Z,996.93
2022-09-07T10:44:17.604Z,996.91
2022-09-07T10:45:15.065Z,996.91
2022-09-07T10:46:56.182Z,996.95
2022-09-07T10:47:16.805Z,996.96
2022-09-07T10:48:20.036Z,996.91
2022-09-07T10:49:14.584Z,996.95
2022-09-07T10:50:22.547Z,996.98
2022-09-07T10:51:14.830Z,997.01
2022-09-07T10:52:17.203Z,996.98
2022-09-07T10:53:39.739Z,997.02
2022-09-07T10:54:31.776Z,996.95
2022-09-07T10:55:19.237Z,996.98
2022-09-07T10:56:16.111Z,996.99
2022-09-07T10:57:18.070Z,997.00
2022-09-07T10:58:17.794Z,996.98
2022-09-07T10:59:16.221Z,996.95
2022-09-07T11:00:17.153Z,996.95
2022-09-07T11:01:17.843Z,996.98
2022-09-07T11:02:17.339Z,996.98
2022-09-07T11:03:25.627Z,996.97
2022-09-07T11:04:17.262Z,996.95
2022-09-07T11:05:17.157Z,996.96
2022-09-07T11:06:16.689Z,996.98
2022-09-07T11:07:18.556Z,996.99
2022-09-07T11:08:16.529Z,996.98
2022-09-07T11:09:20.030Z,996.95
2022-09-07T11:10:18.839Z,996.93
2022-09-07T11:11:18.401Z,996.98
2022-09-07T11:12:17.384Z,996.93
2022-09-07T11:13:16.457Z,996.91
2022-09-07T11:14:17.950Z,996.90
2022-09-07T11:15:17.791Z,996.92
2022-09-07T11:17:16.660Z,996.95
2022-09-07T11:18:21.472Z,996.93
2022-09-07T11:19:36.146Z,996.94
2022-09-07T11:20:21.393Z,996.97
2022-09-07T11:21:56.118Z,996.96
2022-09-07T11:22:14.318Z,996.95
2022-09-07T11:23:17.919Z,996.89
2022-09-07T11:24:18.441Z,996.88
2022-09-07T11:25:31.494Z,996.90
2022-09-07T11:26:20.417Z,996.89
2022-09-07T11:27:16.923Z,996.88
2022-09-07T11:28:13.739Z,996.89
2022-09-07T11:29:30.827Z,996.86
2022-09-07T11:30:17.187Z,996.90
2022-09-07T11:31:17.842Z,996.87
2022-09-07T11:32:16.646Z,996.93
2022-09-07T11:33:16.260Z,996.88
2022-09-07T11:34:25.874Z,996.87
2022-09-07T11:35:18.224Z,996.86
2022-09-07T11:36:15.261Z,996.87
2022-09-07T11:37:17.498Z,996.90
2022-09-07T11:38:16.691Z,996.79
2022-09-07T11:39:19.175Z,996.77
2022-09-07T11:40:18.611Z,996.82
2022-09-07T11:41:16.931Z,996.79
2022-09-07T11:42:44.049Z,996.77
2022-09-07T11:43:18.198Z,996.85
2022-09-07T11:44:16.931Z,996.80
2022-09-07T11:45:17.006Z,996.79
2022-09-07T11:46:17.239Z,996.79
2022-09-07T11:47:18.581Z,996.83
2022-09-07T11:48:19.847Z,996.82
2022-09-07T11:49:17.745Z,996.84
2022-09-07T11:50:18.427Z,996.85
2022-09-07T11:51:17.189Z,996.81
2022-09-07T11:52:19.203Z,996.89
2022-09-07T11:53:19.537Z,996.79
2022-09-07T11:54:19.044Z,996.82
2022-09-07T11:55:18.533Z,996.83
2022-09-07T11:56:19.146Z,996.77
2022-09-07T11:57:19.930Z,996.76
2022-09-07T11:58:19.123Z,996.78
2022-09-07T11:59:19.208Z,996.78
2022-09-07T12:00:17.232Z,996.75
2022-09-07T12:01:18.792Z,996.76
2022-09-07T12:02:19.233Z,996.76
2022-09-07T12:03:22.607Z,996.70
2022-09-07T12:04:17.725Z,996.75
2022-09-07T12:05:19.175Z,996.71
2022-09-07T12:06:19.357Z,996.74
2022-09-07T12:07:18.915Z,996.78
2022-09-07T12:08:19.017Z,996.70
2022-09-07T12:09:17.512Z,996.59
2022-09-07T12:10:19.248Z,996.59
2022-09-07T12:11:23.247Z,996.60
2022-09-07T12:12:19.718Z,996.59
2022-09-07T12:13:20.013Z,996.58
2022-09-07T12:14:18.572Z,996.57
2022-09-07T12:15:20.955Z,996.62
2022-09-07T12:16:19.502Z,996.58
2022-09-07T12:17:19.474Z,996.59
2022-09-07T12:18:19.267Z,996.61
2022-09-07T12:19:19.261Z,996.56
2022-09-07T12:20:19.132Z,996.59
2022-09-07T12:21:18.422Z,996.63
2022-09-07T12:22:18.307Z,996.62
2022-09-07T12:23:19.631Z,996.63
2022-09-07T12:24:17.925Z,996.67
2022-09-07T12:25:20.381Z,996.59
2022-09-07T12:26:18.531Z,996.59
2022-09-07T12:27:19.777Z,996.60
2022-09-07T12:28:21.984Z,996.58
2022-09-07T12:29:19.634Z,996.55
2022-09-07T12:30:19.924Z,996.58
2022-09-07T12:31:20.321Z,996.56
2022-09-07T12:33:19.688Z,996.54
2022-09-07T12:34:19.923Z,996.58
2022-09-07T12:35:18.655Z,996.53
2022-09-07T12:36:19.895Z,996.48
2022-09-07T12:37:18.828Z,996.53
2022-09-07T12:38:19.319Z,996.47
2022-09-07T12:39:20.922Z,996.45
2022-09-07T12:40:17.926Z,996.46
2022-09-07T12:41:19.478Z,996.44
2022-09-07T12:42:34.319Z,996.47
2022-09-07T12:43:17.718Z,996.42
2022-09-07T12:44:18.179Z,996.39
2022-09-07T12:45:18.681Z,996.41
2022-09-07T12:46:18.402Z,996.37
2022-09-07T12:47:18.571Z,996.41
2022-09-07T12:48:20.126Z,996.39
2022-09-07T12:49:18.968Z,996.42
2022-09-07T12:50:19.565Z,996.45
2022-09-07T12:51:59.679Z,996.42